createdAt,value
2022-11-29T00:00:52.497Z,100929.91
2022-11-29T00:03:19.346Z,100926.16
2022-11-29T00:05:46.051Z,100923.41
2022-11-29T00:08:13.679Z,100926.47
2022-11-29T00:10:40.432Z,100926.47
2022-11-29T00:13:07.071Z,100925.47
2022-11-29T00:15:38.148Z,100920.78
2022-11-29T00:18:05.663Z,100918.34
2022-11-29T00:20:33.457Z,100922.84
2022-11-29T00:23:00.386Z,100920.91
2022-11-29T00:25:27.814Z,100920.91
2022-11-29T00:27:54.407Z,100929.97
2022-11-29T00:30:21.139Z,100933.03
2022-11-29T00:32:47.841Z,100933.84
2022-11-29T00:35:14.611Z,100941.59
2022-11-29T00:37:41.329Z,100938.31
2022-11-29T00:40:08.630Z,100946.06
2022-11-29T00:42:35.243Z,100945.25
2022-11-29T00:45:01.886Z,100954.63
2022-11-29T00:47:29.474Z,100954.91
2022-11-29T00:49:56.075Z,100954.63
2022-11-29T00:52:22.764Z,100959.31
2022-11-29T00:54:49.338Z,100957.88
2022-11-29T00:57:15.958Z,100963.06
2022-11-29T00:59:42.576Z,100965.78
2022-11-29T01:02:09.271Z,100960.31
2022-11-29T01:04:35.900Z,100965.78
2022-11-29T01:07:02.662Z,100957.06
2022-11-29T01:09:29.301Z,100949.94
2022-11-29T01:11:55.874Z,100952.19
2022-11-29T01:14:22.801Z,100942.63
2022-11-29T01:16:49.465Z,100942.63
2022-11-29T01:19:16.250Z,100932.44
2022-11-29T01:21:42.883Z,100926.94
2022-11-29T01:24:09.548Z,100929.69
2022-11-29T01:26:36.183Z,100920.84
2022-11-29T01:29:02.795Z,100927.97
2022-11-29T01:31:32.309Z,100923.25
2022-11-29T01:34:01.084Z,100939.47
2022-11-29T01:36:28.602Z,100947.69
2022-11-29T01:38:55.665Z,100943.19
2022-11-29T01:41:28.317Z,100957.47
2022-11-29T01:44:00.096Z,100959.88
2022-11-29T01:46:32.396Z,100946.66
2022-11-29T01:49:08.879Z,100950.72
2022-11-29T01:51:40.118Z,100953.16
2022-11-29T01:54:08.609Z,100952.03
2022-11-29T01:56:36.038Z,100946.22
2022-11-29T01:59:06.658Z,100959.66
2022-11-29T02:01:34.747Z,100957.72
2022-11-29T02:04:04.784Z,100959.66
2022-11-29T02:06:31.539Z,100952.53
2022-11-29T02:08:58.290Z,100958.03
2022-11-29T02:11:31.130Z,100947.34
2022-11-29T02:14:22.589Z,100960.25
2022-11-29T02:17:01.893Z,100960.09
2022-11-29T02:19:42.301Z,100968.47
2022-11-29T02:22:28.287Z,100976.78
2022-11-29T02:25:18.249Z,100982.09
2022-11-29T02:28:04.302Z,100982.09
2022-11-29T02:30:46.308Z,100987.28
2022-11-29T02:33:44.139Z,100992.16
2022-11-29T02:36:23.515Z,100995.53
2022-11-29T02:39:22.482Z,100989.53
2022-11-29T02:42:24.467Z,100983.72
2022-11-29T02:45:22.001Z,100981.78
2022-11-29T02:48:07.402Z,100973.53
2022-11-29T02:50:57.196Z,100977.31
2022-11-29T02:53:50.234Z,100981.66
2022-11-29T02:56:32.011Z,100980.56
2022-11-29T02:59:23.380Z,100970.69
2022-11-29T03:01:56.020Z,100979.44
2022-11-29T03:04:43.201Z,100985.72
2022-11-29T03:07:23.873Z,100988.47
2022-11-29T03:10:08.566Z,100995.41
2022-11-29T03:12:45.940Z,101005.09
2022-11-29T03:16:00.093Z,101009.25
2022-11-29T03:18:57.230Z,101003.06
2022-11-29T03:21:37.194Z,101004.28
2022-11-29T03:24:15.883Z,100985.94
2022-11-29T03:26:49.415Z,100988.81
2022-11-29T03:29:27.192Z,101004.59
2022-11-29T03:32:03.524Z,101000.00
2022-11-29T03:34:57.451Z,101002.56
2022-11-29T03:37:51.750Z,101014.47
2022-11-29T03:40:22.552Z,101020.28
2022-11-29T03:43:02.181Z,101031.53
2022-11-29T03:46:03.234Z,101019.75
2022-11-29T03:48:56.154Z,101029.13
2022-11-29T03:51:49.253Z,101018.13
2022-11-29T03:54:22.380Z,101007.97
2022-11-29T03:56:49.631Z,101013.47
2022-11-29T03:59:44.218Z,101022.81
2022-11-29T04:02:38.624Z,101024.44
2022-11-29T04:05:14.108Z,101038.16
2022-11-29T04:07:55.935Z,101037.03
2022-11-29T04:10:59.254Z,101040.28
2022-11-29T04:14:07.446Z,101036.94
2022-11-29T04:16:51.931Z,101043.75
2022-11-29T04:19:30.487Z,101048.13
2022-11-29T04:22:44.547Z,101047.81
2022-11-29T04:25:13.722Z,101066.75
2022-11-29T04:27:41.600Z,101070.81
2022-11-29T04:30:11.102Z,101074.88
2022-11-29T04:32:55.952Z,101075.72
2022-11-29T04:35:28.499Z,101074.06
2022-11-29T04:38:09.563Z,101075.72
2022-11-29T04:41:14.106Z,101076.22
2022-11-29T04:44:05.503Z,101079.47
2022-11-29T04:46:39.991Z,101077.53
2022-11-29T04:49:24.889Z,101087.09
2022-11-29T04:52:12.637Z,101084.84
2022-11-29T04:55:04.597Z,101092.50
2022-11-29T04:57:55.738Z,101093.00
2022-11-29T05:00:24.858Z,101097.09
2022-11-29T05:02:58.868Z,101094.06
2022-11-29T05:05:44.221Z,101098.13
2022-11-29T05:08:25.987Z,101094.28
2022-11-29T05:11:04.707Z,101091.19
2022-11-29T05:14:01.922Z,101081.84
2022-11-29T05:16:45.763Z,101074.09
2022-11-29T05:19:26.062Z,101080.44
2022-11-29T05:22:23.014Z,101071.84
2022-11-29T05:25:08.130Z,101086.09
2022-11-29T05:27:40.936Z,101092.41
2022-11-29T05:30:13.467Z,101097.91
2022-11-29T05:32:53.830Z,101105.34
2022-11-29T05:35:44.737Z,101118.25
2022-11-29T05:38:34.364Z,101111.97
2022-11-29T05:41:03.958Z,101118.56
2022-11-29T05:44:11.406Z,101127.13
2022-11-29T05:47:03.978Z,101122.75
2022-11-29T05:49:51.782Z,101136.81
2022-11-29T05:52:53.134Z,101143.19
2022-11-29T05:55:48.307Z,101138.59
2022-11-29T05:58:39.814Z,101136.44
2022-11-29T06:01:23.574Z,101143.09
2022-11-29T06:03:59.963Z,101141.72
2022-11-29T06:06:30.710Z,101139.91
2022-11-29T06:09:07.646Z,101134.50
2022-11-29T06:11:44.386Z,101135.69
2022-11-29T06:14:44.792Z,101139.97
2022-11-29T06:17:39.682Z,101134.34
2022-11-29T06:20:40.266Z,101134.53
2022-11-29T06:23:25.410Z,101138.50
2022-11-29T06:26:07.417Z,101159.72
2022-11-29T06:29:01.864Z,101166.53
2022-11-29T06:31:44.587Z,101158.00
2022-11-29T06:34:36.527Z,101169.78
2022-11-29T06:37:23.902Z,101165.41
2022-11-29T06:39:50.710Z,101169.28
2022-11-29T06:42:17.513Z,101181.13
2022-11-29T06:44:44.572Z,101182.78
2022-11-29T06:47:27.299Z,101181.59
2022-11-29T06:49:58.801Z,101187.00
2022-11-29T06:53:05.470Z,101182.03
2022-11-29T06:55:49.375Z,101163.63
2022-11-29T06:58:40.412Z,101171.88
2022-11-29T07:01:33.606Z,101155.97
2022-11-29T07:04:30.943Z,101159.84
2022-11-29T07:06:57.968Z,101165.88
2022-11-29T07:09:30.564Z,101167.47
2022-11-29T07:11:57.643Z,101179.59
2022-11-29T07:14:24.794Z,101170.75
2022-11-29T07:17:12.860Z,101188.63
2022-11-29T07:19:54.456Z,101194.66
2022-11-29T07:22:59.068Z,101205.81
2022-11-29T07:25:51.206Z,101201.06
2022-11-29T07:28:46.611Z,101194.69
2022-11-29T07:31:16.487Z,101207.50
2022-11-29T07:34:25.238Z,101194.50
2022-11-29T07:37:10.821Z,101181.78
2022-11-29T07:39:54.187Z,101180.69
2022-11-29T07:42:23.409Z,101178.75
2022-11-29T07:44:52.750Z,101187.28
2022-11-29T07:47:19.442Z,101192.28
2022-11-29T07:49:46.010Z,101199.41
2022-11-29T07:52:15.742Z,101201.03
2022-11-29T07:54:42.701Z,101201.53
2022-11-29T07:57:09.410Z,101202.06
2022-11-29T07:59:36.070Z,101202.25
2022-11-29T08:02:06.511Z,101200.84
2022-11-29T08:04:47.293Z,101209.63
2022-11-29T08:07:14.652Z,101203.53
2022-11-29T08:09:41.312Z,101216.13
2022-11-29T08:12:08.005Z,101219.69
2022-11-29T08:14:34.610Z,101218.28
2022-11-29T08:17:01.200Z,101220.44
2022-11-29T08:19:27.911Z,101222.88
2022-11-29T08:21:54.591Z,101230.84
2022-11-29T08:24:21.562Z,101223.94
2022-11-29T08:26:48.440Z,101232.69
2022-11-29T08:29:15.418Z,101234.00
2022-11-29T08:31:42.097Z,101224.34
2022-11-29T08:34:10.634Z,101213.06
2022-11-29T08:36:37.395Z,101217.13
2022-11-29T08:39:09.315Z,101223.13
2022-11-29T08:41:36.280Z,101234.31
2022-11-29T08:44:04.961Z,101212.31
2022-11-29T08:46:49.991Z,101213.97
2022-11-29T08:49:16.608Z,101213.38
2022-11-29T08:51:43.264Z,101210.28
2022-11-29T08:54:10.541Z,101208.09
2022-11-29T08:59:24.318Z,101211.84
2022-11-29T09:01:51.262Z,101235.16
2022-11-29T09:04:17.995Z,101237.19
2022-11-29T09:06:44.880Z,101231.09
2022-11-29T09:09:11.547Z,101229.66
2022-11-29T09:11:38.233Z,101232.41
2022-11-29T09:14:07.701Z,101228.25
2022-11-29T09:16:36.821Z,101234.56
2022-11-29T09:19:05.371Z,101231.50
2022-11-29T09:21:34.419Z,101241.06
2022-11-29T09:24:02.944Z,101250.13
2022-11-29T09:26:32.258Z,101251.78
2022-11-29T09:29:01.394Z,101258.91
2022-11-29T09:31:29.954Z,101266.84
2022-11-29T09:33:57.325Z,101264.59
2022-11-29T09:36:28.424Z,101272.53
2022-11-29T09:39:00.793Z,101254.94
2022-11-29T09:41:49.364Z,101259.81
2022-11-29T09:44:41.280Z,101248.81
2022-11-29T09:47:28.147Z,101246.56
2022-11-29T09:50:16.627Z,101253.72
2022-11-29T09:52:57.303Z,101255.84
2022-11-29T09:55:30.035Z,101243.09
2022-11-29T09:57:59.554Z,101246.88
2022-11-29T10:00:28.863Z,101249.00
2022-11-29T10:03:01.489Z,101252.78
2022-11-29T10:05:32.626Z,101264.28
2022-11-29T10:08:07.118Z,101249.91
2022-11-29T10:10:41.635Z,101251.25
2022-11-29T10:13:23.883Z,101256.13
2022-11-29T10:15:54.587Z,101252.28
2022-11-29T10:18:23.919Z,101252.44
2022-11-29T10:20:52.690Z,101249.09
2022-11-29T10:23:47.104Z,101247.34
2022-11-29T10:26:14.072Z,101255.78
2022-11-29T10:28:45.563Z,101259.03
2022-11-29T10:31:26.969Z,101251.00
2022-11-29T10:34:00.484Z,101253.94
2022-11-29T10:36:29.048Z,101253.00
2022-11-29T10:38:59.742Z,101257.91
2022-11-29T10:41:27.121Z,101255.66
2022-11-29T10:43:58.834Z,101246.75
2022-11-29T10:46:30.423Z,101237.88
2022-11-29T10:48:59.565Z,101245.03
2022-11-29T10:51:26.265Z,101249.91
2022-11-29T10:53:56.952Z,101246.03
2022-11-29T10:56:29.428Z,101254.78
2022-11-29T10:59:03.380Z,101259.19
2022-11-29T11:01:31.951Z,101253.34
2022-11-29T11:04:00.802Z,101253.88
2022-11-29T11:06:43.383Z,101247.22
2022-11-29T11:09:29.149Z,101246.28
2022-11-29T11:12:01.624Z,101247.59
2022-11-29T11:14:34.522Z,101240.69
2022-11-29T11:17:22.626Z,101235.34
2022-11-29T11:20:05.795Z,101233.06
2022-11-29T11:22:34.682Z,101232.44
2022-11-29T11:25:07.004Z,101211.72
2022-11-29T11:27:40.202Z,101211.09
2022-11-29T11:30:21.933Z,101216.47
2022-11-29T11:33:20.548Z,101203.09
2022-11-29T11:36:05.163Z,101206.81
2022-11-29T11:38:33.006Z,101203.44
2022-11-29T11:41:20.679Z,101200.22
2022-11-29T11:44:14.956Z,101198.97
2022-11-29T11:46:50.525Z,101197.50
2022-11-29T11:49:31.293Z,101201.28
2022-11-29T11:51:59.661Z,101187.66
2022-11-29T11:54:27.022Z,101196.94
2022-11-29T11:56:53.661Z,101193.53
2022-11-29T11:59:24.496Z,101186.09
2022-11-29T12:01:51.640Z,101173.41
2022-11-29T12:04:23.058Z,101178.44
2022-11-29T12:06:50.052Z,101183.44
2022-11-29T12:09:25.777Z,101178.06
2022-11-29T12:12:03.828Z,101172.06
2022-11-29T12:14:54.340Z,101172.41
2022-11-29T12:17:38.878Z,101183.25
2022-11-29T12:20:05.526Z,101172.22
2022-11-29T12:22:46.722Z,101160.22
2022-11-29T12:25:21.239Z,101163.59
2022-11-29T12:27:50.173Z,101166.66
2022-11-29T12:30:18.424Z,101162.28
2022-11-29T12:33:04.231Z,101164.53
2022-11-29T12:35:44.755Z,101164.38
2022-11-29T12:38:56.030Z,101176.84
2022-11-29T12:41:53.763Z,101173.56
2022-11-29T12:44:53.040Z,101163.97
2022-11-29T12:47:38.374Z,101166.25
2022-11-29T12:50:07.765Z,101166.25
2022-11-29T12:52:55.746Z,101175.66
2022-11-29T12:56:05.320Z,101168.50
2022-11-29T12:58:51.032Z,101165.25
2022-11-29T13:01:23.454Z,101172.38
2022-11-29T13:04:12.215Z,101179.53
2022-11-29T13:06:38.960Z,101174.22
2022-11-29T13:09:11.316Z,101171.13
2022-11-29T13:11:43.251Z,101169.34
2022-11-29T13:14:43.383Z,101177.81
2022-11-29T13:17:31.870Z,101170.84
2022-11-29T13:20:04.213Z,101168.91
2022-11-29T13:22:53.379Z,101163.88
2022-11-29T13:25:36.163Z,101160.00
2022-11-29T13:28:32.002Z,101143.47
2022-11-29T13:31:28.961Z,101156.94
2022-11-29T13:34:13.437Z,101155.31
2022-11-29T13:37:03.818Z,101148.66
2022-11-29T13:39:39.108Z,101153.69
2022-11-29T13:42:12.928Z,101156.94
2022-11-29T13:44:58.707Z,101145.59
2022-11-29T13:47:25.487Z,101145.75
2022-11-29T13:50:04.752Z,101136.69
2022-11-29T13:52:36.328Z,101144.63
2022-11-29T13:55:11.777Z,101131.97
2022-11-29T13:58:17.479Z,101128.72
2022-11-29T14:00:44.805Z,101134.25
2022-11-29T14:03:27.167Z,101129.88
2022-11-29T14:06:03.438Z,101126.31
2022-11-29T14:09:10.414Z,101134.88
2022-11-29T14:11:34.747Z,101131.63
2022-11-29T14:14:01.471Z,101130.81
2022-11-29T14:16:38.558Z,101138.25
2022-11-29T14:19:09.951Z,101133.91
2022-11-29T14:22:07.383Z,101135.03
2022-11-29T14:24:36.602Z,101133.91
2022-11-29T14:27:06.066Z,101138.94
2022-11-29T14:29:47.984Z,101139.22
2022-11-29T14:32:32.653Z,101129.84
2022-11-29T14:35:43.035Z,101130.66
2022-11-29T14:38:25.088Z,101133.72
2022-11-29T14:41:06.530Z,101121.88
2022-11-29T14:43:35.503Z,101124.94
2022-11-29T14:46:14.367Z,101116.97
2022-11-29T14:48:47.578Z,101119.25
2022-11-29T14:51:19.685Z,101103.88
2022-11-29T14:53:51.206Z,101120.41
2022-11-29T14:56:33.016Z,101117.94
2022-11-29T14:59:37.259Z,101111.13
2022-11-29T15:02:16.148Z,101109.53
2022-11-29T15:04:43.620Z,101112.91
2022-11-29T15:07:17.535Z,101115.47
2022-11-29T15:09:44.717Z,101121.31
2022-11-29T15:12:35.524Z,101119.19
2022-11-29T15:15:42.207Z,101124.50
2022-11-29T15:18:40.908Z,101128.69
2022-11-29T15:21:26.814Z,101137.59
2022-11-29T15:24:03.686Z,101133.03
2022-11-29T15:26:32.293Z,101137.22
2022-11-29T15:29:19.766Z,101134.00
2022-11-29T15:31:52.309Z,101130.22
2022-11-29T15:34:46.040Z,101132.00
2022-11-29T15:37:22.922Z,101123.53
2022-11-29T15:40:03.645Z,101120.59
2022-11-29T15:42:47.138Z,101135.63
2022-11-29T15:45:49.438Z,101136.88
2022-11-29T15:48:21.575Z,101136.31
2022-11-29T15:51:05.576Z,101137.88
2022-11-29T15:53:43.403Z,101131.97
2022-11-29T15:56:48.180Z,101138.72
2022-11-29T15:59:54.682Z,101138.53
2022-11-29T16:02:29.362Z,101137.31
2022-11-29T16:05:21.569Z,101138.25
2022-11-29T16:07:53.500Z,101143.06
2022-11-29T16:10:23.805Z,101150.00
2022-11-29T16:13:03.922Z,101140.72
2022-11-29T16:15:36.452Z,101132.09
2022-11-29T16:18:25.493Z,101134.41
2022-11-29T16:21:03.671Z,101136.78
2022-11-29T16:23:35.274Z,101139.63
2022-11-29T16:26:13.931Z,101143.59
2022-11-29T16:28:46.038Z,101141.78
2022-11-29T16:31:20.542Z,101141.06
2022-11-29T16:33:49.355Z,101151.25
2022-11-29T16:36:21.169Z,101150.25
2022-11-29T16:39:05.201Z,101153.09
2022-11-29T16:41:38.883Z,101155.50
2022-11-29T16:44:26.500Z,101156.13
2022-11-29T16:47:12.406Z,101154.50
2022-11-29T16:49:39.086Z,101140.75
2022-11-29T16:52:27.120Z,101152.88
2022-11-29T16:54:53.913Z,101155.06
2022-11-29T16:57:20.805Z,101154.84
2022-11-29T16:59:47.644Z,101155.47
2022-11-29T17:02:15.522Z,101156.50
2022-11-29T17:04:43.344Z,101156.81
2022-11-29T17:07:21.308Z,101161.78
2022-11-29T17:09:48.346Z,101160.75
2022-11-29T17:12:15.104Z,101162.19
2022-11-29T17:14:41.759Z,101157.81
2022-11-29T17:17:08.400Z,101159.31
2022-11-29T17:19:35.239Z,101162.16
2022-11-29T17:22:04.642Z,101159.69
2022-11-29T17:24:31.282Z,101166.31
2022-11-29T17:26:57.950Z,101168.34
2022-11-29T17:29:24.623Z,101158.47
2022-11-29T17:31:53.200Z,101156.84
2022-11-29T17:34:19.914Z,101163.94
2022-11-29T17:36:46.838Z,101160.69
2022-11-29T17:39:15.647Z,101159.06
2022-11-29T17:41:42.331Z,101167.00
2022-11-29T17:44:09.578Z,101155.81
2022-11-29T17:46:36.927Z,101169.03
2022-11-29T17:49:06.321Z,101164.94
2022-11-29T17:54:21.054Z,101171.03
2022-11-29T17:56:47.804Z,101164.72
2022-11-29T17:59:14.466Z,101168.00
2022-11-29T18:01:41.598Z,101164.94
2022-11-29T18:04:08.483Z,101172.38
2022-11-29T18:06:37.581Z,101170.75
2022-11-29T18:09:06.832Z,101169.13
2022-11-29T18:11:48.781Z,101166.66
2022-11-29T18:14:19.123Z,101170.75
2022-11-29T18:16:46.024Z,101170.22
2022-11-29T18:19:15.880Z,101167.47
2022-11-29T18:21:43.026Z,101179.59
2022-11-29T18:24:10.356Z,101182.03
2022-11-29T18:26:38.141Z,101180.09
2022-11-29T18:29:06.206Z,101170.75
2022-11-29T18:31:38.973Z,101179.78
2022-11-29T18:34:10.573Z,101168.00
2022-11-29T18:36:48.402Z,101182.25
2022-11-29T18:39:17.415Z,101175.63
2022-11-29T18:41:46.589Z,101176.44
2022-11-29T18:44:15.586Z,101170.34
2022-11-29T18:46:44.819Z,101171.69
2022-11-29T18:49:14.139Z,101173.91
2022-11-29T18:51:44.747Z,101178.81
2022-11-29T18:54:12.453Z,101172.19
2022-11-29T18:56:39.457Z,101177.41
2022-11-29T18:59:11.538Z,101179.84
2022-11-29T19:01:43.403Z,101177.09
2022-11-29T19:04:14.857Z,101179.84
2022-11-29T19:06:42.410Z,101176.56
2022-11-29T19:09:13.617Z,101179.84
2022-11-29T19:11:40.448Z,101178.22
2022-11-29T19:14:12.770Z,101178.50
2022-11-29T19:16:45.065Z,101170.56
2022-11-29T19:19:12.135Z,101172.19
2022-11-29T19:21:39.987Z,101170.25
2022-11-29T19:24:13.768Z,101169.75
2022-11-29T19:26:44.587Z,101165.19
2022-11-29T19:29:12.485Z,101165.19
2022-11-29T19:31:39.533Z,101159.78
2022-11-29T19:34:06.563Z,101163.03
2022-11-29T19:36:33.293Z,101167.38
2022-11-29T19:39:01.720Z,101164.13
2022-11-29T19:41:33.231Z,101162.53
2022-11-29T19:44:02.259Z,101175.63
2022-11-29T19:46:40.064Z,101167.38
2022-11-29T19:49:08.413Z,101167.91
2022-11-29T19:51:35.678Z,101163.53
2022-11-29T19:54:05.449Z,101167.09
2022-11-29T19:56:32.530Z,101160.78
2022-11-29T19:59:00.016Z,101152.88
2022-11-29T20:01:37.820Z,101163.84
2022-11-29T20:04:06.308Z,101164.13
2022-11-29T20:06:33.010Z,101157.22
2022-11-29T20:08:59.683Z,101156.72
2022-11-29T20:11:27.015Z,101157.31
2022-11-29T20:13:59.262Z,101155.16
2022-11-29T20:16:27.033Z,101155.75
2022-11-29T20:18:54.646Z,101156.56
2022-11-29T20:21:28.380Z,101155.25
2022-11-29T20:24:00.059Z,101163.47
2022-11-29T20:26:30.442Z,101153.91
2022-11-29T20:28:57.099Z,101161.06
2022-11-29T20:31:23.922Z,101157.19
2022-11-29T20:33:52.797Z,101161.34
2022-11-29T20:36:37.885Z,101166.09
2022-11-29T20:39:23.684Z,101169.66
2022-11-29T20:42:26.224Z,101169.97
2022-11-29T20:44:58.274Z,101163.75
2022-11-29T20:47:28.038Z,101164.84
2022-11-29T20:49:54.980Z,101160.75
2022-11-29T20:52:40.991Z,101167.59
2022-11-29T20:55:07.841Z,101171.97
2022-11-29T20:57:34.929Z,101163.75
2022-11-29T21:00:02.450Z,101167.59
2022-11-29T21:02:29.171Z,101170.91
2022-11-29T21:04:55.828Z,101166.84
2022-11-29T21:07:22.646Z,101166.25
2022-11-29T21:09:49.327Z,101161.34
2022-11-29T21:12:16.503Z,101167.16
2022-11-29T21:14:44.608Z,101171.00
2022-11-29T21:17:11.685Z,101178.13
2022-11-29T21:19:39.735Z,101166.34
2022-11-29T21:22:27.809Z,101169.66
2022-11-29T21:25:14.279Z,101167.25
2022-11-29T21:27:41.246Z,101154.03
2022-11-29T21:30:19.819Z,101160.03
2022-11-29T21:32:47.994Z,101160.03
2022-11-29T21:35:15.134Z,101158.69
2022-11-29T21:37:42.845Z,101158.69
2022-11-29T21:40:11.416Z,101165.81
2022-11-29T21:42:38.103Z,101158.94
2022-11-29T21:45:08.202Z,101160.53
2022-11-29T21:47:40.087Z,101158.09
2022-11-29T21:50:07.451Z,101153.72
2022-11-29T21:52:34.116Z,101160.34
2022-11-29T21:55:00.812Z,101158.94
2022-11-29T21:57:27.466Z,101163.59
2022-11-29T21:59:54.147Z,101164.41
2022-11-29T22:02:21.398Z,101161.34
2022-11-29T22:04:48.791Z,101172.88
2022-11-29T22:07:15.698Z,101168.19
2022-11-29T22:09:42.375Z,101163.50
2022-11-29T22:12:31.884Z,101165.44
2022-11-29T22:14:55.829Z,101161.34
2022-11-29T22:17:22.447Z,101159.16
2022-11-29T22:19:49.112Z,101160.75
2022-11-29T22:22:16.047Z,101163.81
2022-11-29T22:24:42.676Z,101161.34
2022-11-29T22:27:09.284Z,101171.50
2022-11-29T22:29:35.896Z,101164.19
2022-11-29T22:32:02.691Z,101169.41
2022-11-29T22:34:29.325Z,101170.72
2022-11-29T22:36:56.542Z,101172.34
2022-11-29T22:39:24.137Z,101172.34
2022-11-29T22:41:54.779Z,101167.44
2022-11-29T22:44:23.173Z,101169.09
2022-11-29T22:46:50.185Z,101169.59
2022-11-29T22:49:16.826Z,101174.25
2022-11-29T22:51:43.579Z,101171.25
2022-11-29T22:54:11.709Z,101162.41
2022-11-29T22:56:40.448Z,101171.66
2022-11-29T22:59:07.626Z,101163.97
2022-11-29T23:01:35.854Z,101165.06
2022-11-29T23:04:04.559Z,101154.09
2022-11-29T23:06:34.737Z,101161.00
2022-11-29T23:09:10.588Z,101151.13
2022-11-29T23:11:37.643Z,101155.00
2022-11-29T23:14:04.467Z,101154.69
2022-11-29T23:16:31.343Z,101145.94
2022-11-29T23:18:58.745Z,101158.53
2022-11-29T23:21:28.230Z,101145.13
2022-11-29T23:23:56.733Z,101154.69
2022-11-29T23:26:27.149Z,101146.13
2022-11-29T23:28:54.545Z,101156.53
2022-11-29T23:31:22.461Z,101144.94
2022-11-29T23:33:49.507Z,101148.19
2022-11-29T23:36:17.140Z,101151.50
2022-11-29T23:38:44.126Z,101135.81
2022-11-29T23:41:11.693Z,101134.19
2022-11-29T23:43:40.671Z,101145.19
2022-11-29T23:46:14.732Z,101135.22
2022-11-29T23:48:42.341Z,101142.34
2022-11-29T23:51:09.885Z,101143.53
2022-11-29T23:53:36.562Z,101138.63
2022-11-29T23:56:06.443Z,101150.44
2022-11-29T23:58:33.993Z,101140.59
